sensor_id;sensor_type;location;lat;lon;timestamp;temperature;humidity
1680;DHT22;838;51.794;12.258;2023-05-07T00:00:39;11.30;30.70
1680;DHT22;838;51.794;12.258;2023-05-07T00:03:06;11.60;29.20
1680;DHT22;838;51.794;12.258;2023-05-07T00:05:32;11.70;28.90
1680;DHT22;838;51.794;12.258;2023-05-07T00:07:58;11.90;28.10
1680;DHT22;838;51.794;12.258;2023-05-07T00:10:26;11.90;27.90
1680;DHT22;838;51.794;12.258;2023-05-07T00:12:55;11.90;27.80
1680;DHT22;838;51.794;12.258;2023-05-07T00:15:21;12.10;26.50
1680;DHT22;838;51.794;12.258;2023-05-07T00:17:47;12.10;25.30
1680;DHT22;838;51.794;12.258;2023-05-07T00:20:13;12.10;25.80
1680;DHT22;838;51.794;12.258;2023-05-07T00:22:41;12.00;25.90
1680;DHT22;838;51.794;12.258;2023-05-07T00:25:10;11.90;24.90
1680;DHT22;838;51.794;12.258;2023-05-07T00:27:36;11.90;25.80
1680;DHT22;838;51.794;12.258;2023-05-07T00:30:02;11.80;25.60
1680;DHT22;838;51.794;12.258;2023-05-07T00:32:28;11.60;27.60
1680;DHT22;838;51.794;12.258;2023-05-07T00:34:53;11.60;27.60
1680;DHT22;838;51.794;12.258;2023-05-07T00:37:19;11.90;25.40
1680;DHT22;838;51.794;12.258;2023-05-07T00:39:45;12.00;24.90
1680;DHT22;838;51.794;12.258;2023-05-07T00:42:14;11.80;24.80
1680;DHT22;838;51.794;12.258;2023-05-07T00:44:42;11.60;25.90
1680;DHT22;838;51.794;12.258;2023-05-07T00:47:11;11.70;26.00
1680;DHT22;838;51.794;12.258;2023-05-07T00:49:44;11.70;25.40
1680;DHT22;838;51.794;12.258;2023-05-07T00:52:14;11.80;24.50
1680;DHT22;838;51.794;12.258;2023-05-07T00:54:41;11.70;24.90
1680;DHT22;838;51.794;12.258;2023-05-07T00:57:09;11.60;25.20
1680;DHT22;838;51.794;12.258;2023-05-07T00:59:36;11.60;26.10
1680;DHT22;838;51.794;12.258;2023-05-07T01:02:02;11.70;25.50
1680;DHT22;838;51.794;12.258;2023-05-07T01:04:29;11.70;24.60
1680;DHT22;838;51.794;12.258;2023-05-07T01:06:56;11.70;24.10
1680;DHT22;838;51.794;12.258;2023-05-07T01:09:25;11.80;24.30
1680;DHT22;838;51.794;12.258;2023-05-07T01:11:55;11.70;24.60
1680;DHT22;838;51.794;12.258;2023-05-07T01:14:23;11.50;25.60
1680;DHT22;838;51.794;12.258;2023-05-07T01:16:49;11.60;25.50
1680;DHT22;838;51.794;12.258;2023-05-07T01:19:18;11.50;25.60
1680;DHT22;838;51.794;12.258;2023-05-07T01:21:49;11.40;27.10
1680;DHT22;838;51.794;12.258;2023-05-07T01:24:15;11.40;27.30
1680;DHT22;838;51.794;12.258;2023-05-07T01:26:43;11.50;27.00
1680;DHT22;838;51.794;12.258;2023-05-07T01:29:10;11.50;25.90
1680;DHT22;838;51.794;12.258;2023-05-07T01:31:36;11.40;27.30
1680;DHT22;838;51.794;12.258;2023-05-07T01:34:04;11.50;26.90
1680;DHT22;838;51.794;12.258;2023-05-07T01:36:30;11.40;26.70
1680;DHT22;838;51.794;12.258;2023-05-07T01:38:58;11.10;29.00
1680;DHT22;838;51.794;12.258;2023-05-07T01:41:24;11.00;31.00
1680;DHT22;838;51.794;12.258;2023-05-07T01:43:52;11.10;30.00
1680;DHT22;838;51.794;12.258;2023-05-07T01:46:18;11.30;28.40
1680;DHT22;838;51.794;12.258;2023-05-07T01:48:45;11.20;28.50
1680;DHT22;838;51.794;12.258;2023-05-07T01:51:14;11.20;29.90
1680;DHT22;838;51.794;12.258;2023-05-07T01:53:40;11.20;29.40
1680;DHT22;838;51.794;12.258;2023-05-07T01:56:07;11.00;30.20
1680;DHT22;838;51.794;12.258;2023-05-07T01:58:33;11.10;31.20
1680;DHT22;838;51.794;12.258;2023-05-07T02:01:01;11.00;32.50
1680;DHT22;838;51.794;12.258;2023-05-07T02:03:27;11.10;32.40
1680;DHT22;838;51.794;12.258;2023-05-07T02:05:53;11.00;33.00
1680;DHT22;838;51.794;12.258;2023-05-07T02:08:18;11.00;32.10
1680;DHT22;838;51.794;12.258;2023-05-07T02:10:47;10.80;33.40
1680;DHT22;838;51.794;12.258;2023-05-07T02:13:13;10.80;36.20
1680;DHT22;838;51.794;12.258;2023-05-07T02:15:39;11.00;35.10
1680;DHT22;838;51.794;12.258;2023-05-07T02:18:07;10.80;34.40
1680;DHT22;838;51.794;12.258;2023-05-07T02:20:33;10.80;36.00
1680;DHT22;838;51.794;12.258;2023-05-07T02:22:59;10.80;35.50
1680;DHT22;838;51.794;12.258;2023-05-07T02:25:24;10.70;37.40
1680;DHT22;838;51.794;12.258;2023-05-07T02:27:51;10.70;37.80
1680;DHT22;838;51.794;12.258;2023-05-07T02:30:17;10.50;38.90
1680;DHT22;838;51.794;12.258;2023-05-07T02:32:43;10.50;39.10
1680;DHT22;838;51.794;12.258;2023-05-07T02:35:09;10.50;40.00
1680;DHT22;838;51.794;12.258;2023-05-07T02:37:34;10.30;40.80
1680;DHT22;838;51.794;12.258;2023-05-07T02:40:00;10.30;42.20
1680;DHT22;838;51.794;12.258;2023-05-07T02:42:26;10.30;42.60
1680;DHT22;838;51.794;12.258;2023-05-07T02:44:52;10.20;43.90
1680;DHT22;838;51.794;12.258;2023-05-07T02:47:17;10.30;43.30
1680;DHT22;838;51.794;12.258;2023-05-07T02:49:43;10.40;43.10
1680;DHT22;838;51.794;12.258;2023-05-07T02:52:09;10.40;42.30
1680;DHT22;838;51.794;12.258;2023-05-07T02:54:35;10.50;41.90
1680;DHT22;838;51.794;12.258;2023-05-07T02:57:01;10.60;41.40
1680;DHT22;838;51.794;12.258;2023-05-07T02:59:27;10.80;39.80
1680;DHT22;838;51.794;12.258;2023-05-07T03:01:54;10.90;36.40
1680;DHT22;838;51.794;12.258;2023-05-07T03:04:26;11.00;36.80
1680;DHT22;838;51.794;12.258;2023-05-07T03:06:55;11.10;35.00
1680;DHT22;838;51.794;12.258;2023-05-07T03:09:23;11.30;33.20
1680;DHT22;838;51.794;12.258;2023-05-07T03:11:49;11.40;30.00
1680;DHT22;838;51.794;12.258;2023-05-07T03:14:18;11.30;30.00
1680;DHT22;838;51.794;12.258;2023-05-07T03:16:44;11.20;30.00
1680;DHT22;838;51.794;12.258;2023-05-07T03:19:13;11.20;30.10
1680;DHT22;838;51.794;12.258;2023-05-07T03:21:39;11.30;31.40
1680;DHT22;838;51.794;12.258;2023-05-07T03:24:05;11.30;30.20
1680;DHT22;838;51.794;12.258;2023-05-07T03:26:31;11.10;31.20
1680;DHT22;838;51.794;12.258;2023-05-07T03:29:00;11.30;29.90
1680;DHT22;838;51.794;12.258;2023-05-07T03:31:25;11.10;29.80
1680;DHT22;838;51.794;12.258;2023-05-07T03:33:57;11.10;31.20
1680;DHT22;838;51.794;12.258;2023-05-07T03:36:23;11.20;31.10
1680;DHT22;838;51.794;12.258;2023-05-07T03:38:49;11.10;29.60
1680;DHT22;838;51.794;12.258;2023-05-07T03:41:16;11.00;30.50
1680;DHT22;838;51.794;12.258;2023-05-07T03:43:44;10.90;31.70
1680;DHT22;838;51.794;12.258;2023-05-07T03:46:10;11.00;31.10
1680;DHT22;838;51.794;12.258;2023-05-07T03:48:36;11.00;31.20
1680;DHT22;838;51.794;12.258;2023-05-07T03:51:02;10.90;30.70
1680;DHT22;838;51.794;12.258;2023-05-07T03:53:28;11.10;30.70
1680;DHT22;838;51.794;12.258;2023-05-07T03:55:56;11.30;29.60
1680;DHT22;838;51.794;12.258;2023-05-07T03:58:25;11.40;28.30
1680;DHT22;838;51.794;12.258;2023-05-07T04:00:53;11.20;28.10
1680;DHT22;838;51.794;12.258;2023-05-07T04:03:19;11.20;29.80
1680;DHT22;838;51.794;12.258;2023-05-07T04:05:48;11.10;28.90
1680;DHT22;838;51.794;12.258;2023-05-07T04:08:17;11.10;29.80
1680;DHT22;838;51.794;12.258;2023-05-07T04:10:58;11.10;29.70
1680;DHT22;838;51.794;12.258;2023-05-07T04:13:25;11.20;29.40
1680;DHT22;838;51.794;12.258;2023-05-07T04:15:52;11.40;27.70
1680;DHT22;838;51.794;12.258;2023-05-07T04:18:20;11.50;27.40
1680;DHT22;838;51.794;12.258;2023-05-07T04:20:49;11.40;26.50
1680;DHT22;838;51.794;12.258;2023-05-07T04:23:15;11.20;27.60
1680;DHT22;838;51.794;12.258;2023-05-07T04:25:44;11.00;28.90
1680;DHT22;838;51.794;12.258;2023-05-07T04:28:13;11.00;29.50
1680;DHT22;838;51.794;12.258;2023-05-07T04:30:43;11.10;28.60
1680;DHT22;838;51.794;12.258;2023-05-07T04:33:10;11.10;28.10
1680;DHT22;838;51.794;12.258;2023-05-07T04:35:37;11.10;27.60
1680;DHT22;838;51.794;12.258;2023-05-07T04:38:05;11.20;27.10
1680;DHT22;838;51.794;12.258;2023-05-07T04:40:31;11.00;26.70
1680;DHT22;838;51.794;12.258;2023-05-07T04:42:57;11.10;27.70
1680;DHT22;838;51.794;12.258;2023-05-07T04:45:24;11.00;27.00
1680;DHT22;838;51.794;12.258;2023-05-07T04:47:49;10.90;28.70
1680;DHT22;838;51.794;12.258;2023-05-07T04:50:15;11.00;28.90
1680;DHT22;838;51.794;12.258;2023-05-07T04:52:41;11.30;27.20
1680;DHT22;838;51.794;12.258;2023-05-07T04:55:10;11.40;26.60
1680;DHT22;838;51.794;12.258;2023-05-07T04:57:39;11.50;25.50
1680;DHT22;838;51.794;12.258;2023-05-07T05:00:06;11.30;25.70
1680;DHT22;838;51.794;12.258;2023-05-07T05:02:35;11.20;26.80
1680;DHT22;838;51.794;12.258;2023-05-07T05:05:01;11.20;26.30
1680;DHT22;838;51.794;12.258;2023-05-07T05:07:30;11.00;26.40
1680;DHT22;838;51.794;12.258;2023-05-07T05:09:56;11.20;25.20
1680;DHT22;838;51.794;12.258;2023-05-07T05:12:24;10.90;23.80
1680;DHT22;838;51.794;12.258;2023-05-07T05:14:50;10.70;25.50
1680;DHT22;838;51.794;12.258;2023-05-07T05:17:16;10.40;26.30
1680;DHT22;838;51.794;12.258;2023-05-07T05:19:41;10.20;27.70
1680;DHT22;838;51.794;12.258;2023-05-07T05:22:07;10.50;28.50
1680;DHT22;838;51.794;12.258;2023-05-07T05:24:33;10.60;28.30
1680;DHT22;838;51.794;12.258;2023-05-07T05:26:59;10.50;27.20
1680;DHT22;838;51.794;12.258;2023-05-07T05:29:28;10.40;27.00
1680;DHT22;838;51.794;12.258;2023-05-07T05:31:54;10.40;28.20
1680;DHT22;838;51.794;12.258;2023-05-07T05:34:19;10.30;27.70
1680;DHT22;838;51.794;12.258;2023-05-07T05:36:45;10.40;28.30
1680;DHT22;838;51.794;12.258;2023-05-07T05:39:11;10.40;26.60
1680;DHT22;838;51.794;12.258;2023-05-07T05:41:38;10.40;27.50
1680;DHT22;838;51.794;12.258;2023-05-07T05:44:03;10.50;26.40
1680;DHT22;838;51.794;12.258;2023-05-07T05:46:30;10.60;25.10
1680;DHT22;838;51.794;12.258;2023-05-07T05:48:58;10.60;25.50
1680;DHT22;838;51.794;12.258;2023-05-07T05:51:24;10.60;25.20
1680;DHT22;838;51.794;12.258;2023-05-07T05:53:50;10.60;25.90
1680;DHT22;838;51.794;12.258;2023-05-07T05:56:16;10.80;24.40
1680;DHT22;838;51.794;12.258;2023-05-07T05:58:42;10.90;23.70
1680;DHT22;838;51.794;12.258;2023-05-07T06:01:08;11.10;24.60
1680;DHT22;838;51.794;12.258;2023-05-07T06:03:34;11.10;22.60
1680;DHT22;838;51.794;12.258;2023-05-07T06:06:03;11.20;23.20
1680;DHT22;838;51.794;12.258;2023-05-07T06:08:29;11.30;22.40
1680;DHT22;838;51.794;12.258;2023-05-07T06:10:56;11.30;22.60
1680;DHT22;838;51.794;12.258;2023-05-07T06:13:22;11.20;22.10
1680;DHT22;838;51.794;12.258;2023-05-07T06:15:49;11.20;22.70
1680;DHT22;838;51.794;12.258;2023-05-07T06:18:14;11.20;22.30
1680;DHT22;838;51.794;12.258;2023-05-07T06:20:40;11.40;21.90
1680;DHT22;838;51.794;12.258;2023-05-07T06:23:06;11.30;22.70
1680;DHT22;838;51.794;12.258;2023-05-07T06:25:32;11.30;22.10
1680;DHT22;838;51.794;12.258;2023-05-07T06:28:01;11.40;22.70
1680;DHT22;838;51.794;12.258;2023-05-07T06:30:27;11.50;21.80
1680;DHT22;838;51.794;12.258;2023-05-07T06:32:53;11.50;22.40
1680;DHT22;838;51.794;12.258;2023-05-07T06:35:19;11.60;21.80
1680;DHT22;838;51.794;12.258;2023-05-07T06:37:47;11.50;20.80
1680;DHT22;838;51.794;12.258;2023-05-07T06:40:13;11.70;22.30
1680;DHT22;838;51.794;12.258;2023-05-07T06:42:39;11.50;21.60
1680;DHT22;838;51.794;12.258;2023-05-07T06:45:05;11.60;21.30
1680;DHT22;838;51.794;12.258;2023-05-07T06:47:31;11.60;20.90
1680;DHT22;838;51.794;12.258;2023-05-07T06:49:57;11.60;21.20
1680;DHT22;838;51.794;12.258;2023-05-07T06:52:23;11.70;19.60
1680;DHT22;838;51.794;12.258;2023-05-07T06:54:49;11.80;19.80
1680;DHT22;838;51.794;12.258;2023-05-07T06:57:15;11.70;19.60
1680;DHT22;838;51.794;12.258;2023-05-07T06:59:44;11.50;20.10
1680;DHT22;838;51.794;12.258;2023-05-07T07:02:10;11.60;20.20
1680;DHT22;838;51.794;12.258;2023-05-07T07:04:35;11.60;18.50
1680;DHT22;838;51.794;12.258;2023-05-07T07:07:01;11.70;18.80
1680;DHT22;838;51.794;12.258;2023-05-07T07:09:27;11.60;19.70
1680;DHT22;838;51.794;12.258;2023-05-07T07:11:53;11.20;18.50
1680;DHT22;838;51.794;12.258;2023-05-07T07:14:18;10.90;21.10
1680;DHT22;838;51.794;12.258;2023-05-07T07:16:44;10.80;21.50
1680;DHT22;838;51.794;12.258;2023-05-07T07:19:12;10.90;21.60
1680;DHT22;838;51.794;12.258;2023-05-07T07:21:37;10.90;21.70
1680;DHT22;838;51.794;12.258;2023-05-07T07:24:07;11.30;22.10
1680;DHT22;838;51.794;12.258;2023-05-07T07:26:33;11.60;21.20
1680;DHT22;838;51.794;12.258;2023-05-07T07:28:58;11.90;19.50
1680;DHT22;838;51.794;12.258;2023-05-07T07:31:24;11.90;17.50
1680;DHT22;838;51.794;12.258;2023-05-07T07:33:50;11.80;18.90
1680;DHT22;838;51.794;12.258;2023-05-07T07:36:15;11.90;17.00
1680;DHT22;838;51.794;12.258;2023-05-07T07:38:41;11.80;18.70
1680;DHT22;838;51.794;12.258;2023-05-07T07:41:10;11.50;18.00
1680;DHT22;838;51.794;12.258;2023-05-07T07:43:36;11.40;21.50
1680;DHT22;838;51.794;12.258;2023-05-07T07:46:02;11.50;20.10
1680;DHT22;838;51.794;12.258;2023-05-07T07:48:27;11.50;19.30
1680;DHT22;838;51.794;12.258;2023-05-07T07:50:53;11.50;20.20
1680;DHT22;838;51.794;12.258;2023-05-07T07:53:21;11.30;21.00
1680;DHT22;838;51.794;12.258;2023-05-07T07:55:47;11.20;23.10
1680;DHT22;838;51.794;12.258;2023-05-07T07:58:13;11.10;23.00
1680;DHT22;838;51.794;12.258;2023-05-07T08:00:39;11.30;23.40
1680;DHT22;838;51.794;12.258;2023-05-07T08:03:05;11.50;23.70
1680;DHT22;838;51.794;12.258;2023-05-07T08:05:32;11.70;22.90
1680;DHT22;838;51.794;12.258;2023-05-07T08:08:01;11.90;22.10
1680;DHT22;838;51.794;12.258;2023-05-07T08:10:27;12.10;20.90
1680;DHT22;838;51.794;12.258;2023-05-07T08:12:53;12.10;18.90
1680;DHT22;838;51.794;12.258;2023-05-07T08:15:19;11.80;19.40
1680;DHT22;838;51.794;12.258;2023-05-07T08:17:44;11.50;22.10
1680;DHT22;838;51.794;12.258;2023-05-07T08:20:10;11.50;23.20
1680;DHT22;838;51.794;12.258;2023-05-07T08:22:36;11.10;23.90
1680;DHT22;838;51.794;12.258;2023-05-07T08:25:02;11.10;26.70
1680;DHT22;838;51.794;12.258;2023-05-07T08:27:31;11.20;27.50
1680;DHT22;838;51.794;12.258;2023-05-07T08:29:57;11.40;26.40
1680;DHT22;838;51.794;12.258;2023-05-07T08:32:26;11.60;24.30
1680;DHT22;838;51.794;12.258;2023-05-07T08:34:53;11.50;25.00
1680;DHT22;838;51.794;12.258;2023-05-07T08:37:19;11.50;25.20
1680;DHT22;838;51.794;12.258;2023-05-07T08:39:44;11.50;24.70
1680;DHT22;838;51.794;12.258;2023-05-07T08:42:11;11.50;24.40
1680;DHT22;838;51.794;12.258;2023-05-07T08:44:38;11.20;26.20
1680;DHT22;838;51.794;12.258;2023-05-07T08:47:06;11.10;27.20
1680;DHT22;838;51.794;12.258;2023-05-07T08:49:34;10.90;28.30
1680;DHT22;838;51.794;12.258;2023-05-07T08:52:00;11.10;29.60
1680;DHT22;838;51.794;12.258;2023-05-07T08:54:27;11.20;28.30
1680;DHT22;838;51.794;12.258;2023-05-07T08:56:54;11.10;26.10
1680;DHT22;838;51.794;12.258;2023-05-07T08:59:20;10.90;27.20
1680;DHT22;838;51.794;12.258;2023-05-07T09:01:46;10.90;29.70
1680;DHT22;838;51.794;12.258;2023-05-07T09:04:12;10.90;28.70
1680;DHT22;838;51.794;12.258;2023-05-07T09:06:38;10.90;27.00
1680;DHT22;838;51.794;12.258;2023-05-07T09:09:07;11.00;28.20
1680;DHT22;838;51.794;12.258;2023-05-07T09:11:33;11.20;26.30
1680;DHT22;838;51.794;12.258;2023-05-07T09:13:59;11.40;26.70
1680;DHT22;838;51.794;12.258;2023-05-07T09:16:29;11.50;24.90
1680;DHT22;838;51.794;12.258;2023-05-07T09:18:58;11.70;25.80
1680;DHT22;838;51.794;12.258;2023-05-07T09:21:25;11.80;23.10
1680;DHT22;838;51.794;12.258;2023-05-07T09:23:52;11.90;22.20
1680;DHT22;838;51.794;12.258;2023-05-07T09:26:21;11.70;23.10
1680;DHT22;838;51.794;12.258;2023-05-07T09:28:47;11.80;22.60
1680;DHT22;838;51.794;12.258;2023-05-07T09:31:13;12.00;22.00
1680;DHT22;838;51.794;12.258;2023-05-07T09:33:40;12.10;20.50
1680;DHT22;838;51.794;12.258;2023-05-07T09:36:07;12.20;19.80
1680;DHT22;838;51.794;12.258;2023-05-07T09:38:34;12.20;18.80
1680;DHT22;838;51.794;12.258;2023-05-07T09:41:12;12.50;20.50
1680;DHT22;838;51.794;12.258;2023-05-07T09:43:39;12.40;19.90
1680;DHT22;838;51.794;12.258;2023-05-07T09:46:15;12.10;21.50
1680;DHT22;838;51.794;12.258;2023-05-07T09:48:43;12.30;21.30
1680;DHT22;838;51.794;12.258;2023-05-07T09:51:29;12.40;19.60
1680;DHT22;838;51.794;12.258;2023-05-07T09:53:56;12.60;19.30
1680;DHT22;838;51.794;12.258;2023-05-07T09:56:22;12.70;16.60
1680;DHT22;838;51.794;12.258;2023-05-07T09:58:53;12.60;17.70
1680;DHT22;838;51.794;12.258;2023-05-07T10:01:19;12.50;19.90
1680;DHT22;838;51.794;12.258;2023-05-07T10:03:50;12.50;18.70
1680;DHT22;838;51.794;12.258;2023-05-07T10:06:17;12.50;17.40
1680;DHT22;838;51.794;12.258;2023-05-07T10:08:44;12.50;16.50
1680;DHT22;838;51.794;12.258;2023-05-07T10:11:10;12.30;19.10
1680;DHT22;838;51.794;12.258;2023-05-07T10:13:36;12.30;19.50
1680;DHT22;838;51.794;12.258;2023-05-07T10:16:04;12.20;19.60
1680;DHT22;838;51.794;12.258;2023-05-07T10:18:31;12.40;18.80
1680;DHT22;838;51.794;12.258;2023-05-07T10:21:15;12.70;18.00
1680;DHT22;838;51.794;12.258;2023-05-07T10:23:45;12.70;18.90
1680;DHT22;838;51.794;12.258;2023-05-07T10:26:12;12.40;17.70
1680;DHT22;838;51.794;12.258;2023-05-07T10:28:40;12.10;20.10
1680;DHT22;838;51.794;12.258;2023-05-07T10:31:23;12.20;21.20
1680;DHT22;838;51.794;12.258;2023-05-07T10:33:53;12.50;21.10
1680;DHT22;838;51.794;12.258;2023-05-07T10:36:23;12.70;17.60
1680;DHT22;838;51.794;12.258;2023-05-07T10:38:50;12.70;17.00
1680;DHT22;838;51.794;12.258;2023-05-07T10:41:16;12.70;17.90
1680;DHT22;838;51.794;12.258;2023-05-07T10:43:45;12.60;17.10
1680;DHT22;838;51.794;12.258;2023-05-07T10:51:29;12.60;17.50
1680;DHT22;838;51.794;12.258;2023-05-07T10:56:41;12.60;17.70
1680;DHT22;838;51.794;12.258;2023-05-07T11:02:00;13.00;15.50
1680;DHT22;838;51.794;12.258;2023-05-07T11:04:29;13.60;15.00
1680;DHT22;838;51.794;12.258;2023-05-07T11:12:17;12.90;15.60
1680;DHT22;838;51.794;12.258;2023-05-07T11:14:46;13.10;15.10
1680;DHT22;838;51.794;12.258;2023-05-07T11:17:12;12.90;14.70
1680;DHT22;838;51.794;12.258;2023-05-07T11:19:51;12.80;14.60
1680;DHT22;838;51.794;12.258;2023-05-07T11:25:06;13.30;15.40
1680;DHT22;838;51.794;12.258;2023-05-07T11:27:32;13.80;13.40
1680;DHT22;838;51.794;12.258;2023-05-07T11:29:58;14.10;11.70
1680;DHT22;838;51.794;12.258;2023-05-07T11:32:29;13.90;12.30
1680;DHT22;838;51.794;12.258;2023-05-07T11:34:56;13.80;10.00
1680;DHT22;838;51.794;12.258;2023-05-07T11:37:23;13.70;10.20
1680;DHT22;838;51.794;12.258;2023-05-07T11:39:50;13.50;13.60
1680;DHT22;838;51.794;12.258;2023-05-07T11:42:30;13.60;14.20
1680;DHT22;838;51.794;12.258;2023-05-07T11:44:56;14.00;10.20
1680;DHT22;838;51.794;12.258;2023-05-07T11:47:22;13.80;10.00
1680;DHT22;838;51.794;12.258;2023-05-07T11:49:50;13.60;13.00
1680;DHT22;838;51.794;12.258;2023-05-07T11:52:17;13.80;13.60
1680;DHT22;838;51.794;12.258;2023-05-07T11:54:50;13.90;13.70
1680;DHT22;838;51.794;12.258;2023-05-07T11:57:16;14.10;11.30
1680;DHT22;838;51.794;12.258;2023-05-07T11:59:42;14.10;11.90
1680;DHT22;838;51.794;12.258;2023-05-07T12:02:17;14.20;11.40
1680;DHT22;838;51.794;12.258;2023-05-07T12:04:44;13.90;10.30
1680;DHT22;838;51.794;12.258;2023-05-07T12:07:16;13.70;11.50
1680;DHT22;838;51.794;12.258;2023-05-07T12:09:43;13.90;11.50
1680;DHT22;838;51.794;12.258;2023-05-07T12:12:09;14.00;12.40
1680;DHT22;838;51.794;12.258;2023-05-07T12:14:42;13.90;12.80
1680;DHT22;838;51.794;12.258;2023-05-07T12:17:09;13.90;14.00
1680;DHT22;838;51.794;12.258;2023-05-07T12:19:36;14.10;12.20
1680;DHT22;838;51.794;12.258;2023-05-07T12:22:03;14.40;9.00
1680;DHT22;838;51.794;12.258;2023-05-07T12:24:41;14.60;8.80
1680;DHT22;838;51.794;12.258;2023-05-07T12:27:06;14.50;8.30
1680;DHT22;838;51.794;12.258;2023-05-07T12:29:32;14.20;9.10
1680;DHT22;838;51.794;12.258;2023-05-07T12:31:58;13.50;11.10
1680;DHT22;838;51.794;12.258;2023-05-07T12:34:24;13.40;11.60
1680;DHT22;838;51.794;12.258;2023-05-07T12:36:50;13.60;13.80
1680;DHT22;838;51.794;12.258;2023-05-07T12:39:15;13.90;10.70
1680;DHT22;838;51.794;12.258;2023-05-07T12:44:22;14.20;11.30
1680;DHT22;838;51.794;12.258;2023-05-07T12:46:51;14.20;9.70
1680;DHT22;838;51.794;12.258;2023-05-07T12:49:17;14.20;10.20
1680;DHT22;838;51.794;12.258;2023-05-07T12:51:49;14.40;7.60
1680;DHT22;838;51.794;12.258;2023-05-07T12:54:31;14.30;7.50
1680;DHT22;838;51.794;12.258;2023-05-07T12:57:19;13.50;6.80
1680;DHT22;838;51.794;12.258;2023-05-07T12:59:46;13.30;9.50
1680;DHT22;838;51.794;12.258;2023-05-07T13:02:15;13.20;12.00
1680;DHT22;838;51.794;12.258;2023-05-07T13:04:41;13.40;11.30
1680;DHT22;838;51.794;12.258;2023-05-07T13:07:07;13.70;11.60
1680;DHT22;838;51.794;12.258;2023-05-07T13:09:35;14.00;10.80
1680;DHT22;838;51.794;12.258;2023-05-07T13:12:02;14.30;7.80
1680;DHT22;838;51.794;12.258;2023-05-07T13:14:28;14.40;8.60
1680;DHT22;838;51.794;12.258;2023-05-07T13:16:54;14.30;7.70
1680;DHT22;838;51.794;12.258;2023-05-07T13:19:20;14.30;8.00
1680;DHT22;838;51.794;12.258;2023-05-07T13:21:46;14.50;6.80
1680;DHT22;838;51.794;12.258;2023-05-07T13:24:11;14.60;7.30
1680;DHT22;838;51.794;12.258;2023-05-07T13:26:37;14.60;6.20
1680;DHT22;838;51.794;12.258;2023-05-07T13:29:03;14.50;7.80
1680;DHT22;838;51.794;12.258;2023-05-07T13:31:29;14.60;8.10
1680;DHT22;838;51.794;12.258;2023-05-07T13:33:55;14.30;6.30
1680;DHT22;838;51.794;12.258;2023-05-07T13:36:21;14.40;8.10
1680;DHT22;838;51.794;12.258;2023-05-07T13:38:50;14.30;7.00
1680;DHT22;838;51.794;12.258;2023-05-07T13:41:17;14.20;8.10
1680;DHT22;838;51.794;12.258;2023-05-07T13:43:42;14.40;7.90
1680;DHT22;838;51.794;12.258;2023-05-07T13:46:08;14.50;7.00
1680;DHT22;838;51.794;12.258;2023-05-07T13:48:37;14.50;7.10
1680;DHT22;838;51.794;12.258;2023-05-07T13:51:02;14.70;7.10
1680;DHT22;838;51.794;12.258;2023-05-07T13:53:28;14.80;6.20
1680;DHT22;838;51.794;12.258;2023-05-07T13:55:54;14.50;7.80
1680;DHT22;838;51.794;12.258;2023-05-07T13:58:20;14.50;5.60
1680;DHT22;838;51.794;12.258;2023-05-07T14:00:46;14.80;3.80
1680;DHT22;838;51.794;12.258;2023-05-07T14:03:12;14.60;5.20
1680;DHT22;838;51.794;12.258;2023-05-07T14:05:41;14.60;6.60
1680;DHT22;838;51.794;12.258;2023-05-07T14:08:09;14.70;8.00
1680;DHT22;838;51.794;12.258;2023-05-07T14:10:36;14.80;4.70
1680;DHT22;838;51.794;12.258;2023-05-07T14:13:04;15.00;5.80
1680;DHT22;838;51.794;12.258;2023-05-07T14:15:30;14.80;6.10
1680;DHT22;838;51.794;12.258;2023-05-07T14:17:58;14.70;4.20
1680;DHT22;838;51.794;12.258;2023-05-07T14:20:25;14.80;5.60
1680;DHT22;838;51.794;12.258;2023-05-07T14:22:51;14.70;7.00
1680;DHT22;838;51.794;12.258;2023-05-07T14:25:16;14.80;5.80
1680;DHT22;838;51.794;12.258;2023-05-07T14:27:42;14.70;6.10
1680;DHT22;838;51.794;12.258;2023-05-07T14:30:08;14.80;6.10
1680;DHT22;838;51.794;12.258;2023-05-07T14:32:35;14.80;4.90
1680;DHT22;838;51.794;12.258;2023-05-07T14:35:01;14.90;5.80
1680;DHT22;838;51.794;12.258;2023-05-07T14:37:27;14.80;5.20
1680;DHT22;838;51.794;12.258;2023-05-07T14:39:53;14.80;5.50
1680;DHT22;838;51.794;12.258;2023-05-07T14:42:19;14.80;6.70
1680;DHT22;838;51.794;12.258;2023-05-07T14:44:48;14.80;5.10
1680;DHT22;838;51.794;12.258;2023-05-07T14:47:14;15.00;7.30
1680;DHT22;838;51.794;12.258;2023-05-07T14:49:41;14.90;4.90
1680;DHT22;838;51.794;12.258;2023-05-07T14:52:07;14.50;4.50
1680;DHT22;838;51.794;12.258;2023-05-07T14:54:36;14.40;4.50
1680;DHT22;838;51.794;12.258;2023-05-07T14:57:02;14.50;4.40
1680;DHT22;838;51.794;12.258;2023-05-07T14:59:28;14.40;4.30
1680;DHT22;838;51.794;12.258;2023-05-07T15:01:54;14.40;6.70
1680;DHT22;838;51.794;12.258;2023-05-07T15:04:20;14.50;4.30
1680;DHT22;838;51.794;12.258;2023-05-07T15:06:46;14.80;4.10
1680;DHT22;838;51.794;12.258;2023-05-07T15:09:12;14.80;4.80
1680;DHT22;838;51.794;12.258;2023-05-07T15:11:38;14.70;7.70
1680;DHT22;838;51.794;12.258;2023-05-07T15:14:07;14.60;6.90
1680;DHT22;838;51.794;12.258;2023-05-07T15:16:33;14.60;5.90
1680;DHT22;838;51.794;12.258;2023-05-07T15:18:59;14.70;6.40
1680;DHT22;838;51.794;12.258;2023-05-07T15:21:28;14.60;5.30
1680;DHT22;838;51.794;12.258;2023-05-07T15:23:56;14.30;5.00
1680;DHT22;838;51.794;12.258;2023-05-07T15:26:25;14.20;5.30
1680;DHT22;838;51.794;12.258;2023-05-07T15:28:51;14.40;4.80
1680;DHT22;838;51.794;12.258;2023-05-07T15:31:17;14.40;4.90
1680;DHT22;838;51.794;12.258;2023-05-07T15:33:43;14.50;3.50
1680;DHT22;838;51.794;12.258;2023-05-07T15:36:10;14.60;5.80
1680;DHT22;838;51.794;12.258;2023-05-07T15:38:36;14.30;3.20
1680;DHT22;838;51.794;12.258;2023-05-07T15:41:02;14.10;4.50
1680;DHT22;838;51.794;12.258;2023-05-07T15:43:28;14.10;5.10
1680;DHT22;838;51.794;12.258;2023-05-07T15:45:55;14.30;5.90
1680;DHT22;838;51.794;12.258;2023-05-07T15:48:21;14.40;4.80
1680;DHT22;838;51.794;12.258;2023-05-07T15:50:50;14.50;4.00
1680;DHT22;838;51.794;12.258;2023-05-07T15:53:16;14.40;3.20
1680;DHT22;838;51.794;12.258;2023-05-07T15:55:42;14.40;3.20
1680;DHT22;838;51.794;12.258;2023-05-07T15:58:08;14.30;3.70
1680;DHT22;838;51.794;12.258;2023-05-07T16:00:34;14.00;3.90
1680;DHT22;838;51.794;12.258;2023-05-07T16:03:01;13.80;4.70
1680;DHT22;838;51.794;12.258;2023-05-07T16:05:27;13.60;5.90
1680;DHT22;838;51.794;12.258;2023-05-07T16:07:53;13.60;5.80
1680;DHT22;838;51.794;12.258;2023-05-07T16:10:19;13.60;5.80
1680;DHT22;838;51.794;12.258;2023-05-07T16:12:47;13.70;5.70
1680;DHT22;838;51.794;12.258;2023-05-07T16:15:13;13.80;4.00
1680;DHT22;838;51.794;12.258;2023-05-07T16:17:39;13.80;4.60
1680;DHT22;838;51.794;12.258;2023-05-07T16:20:05;13.70;4.20
1680;DHT22;838;51.794;12.258;2023-05-07T16:22:33;13.70;3.50
1680;DHT22;838;51.794;12.258;2023-05-07T16:25:00;13.60;5.00